Time;durP1;ratioP1;P1;durP2;ratioP2;P2;SDS_P1;SDS_P2;PMS_P1;PMS_P2;Temp;Humidity;BMP_temperature;BMP_pressure;BME280_temperature;BME280_humidity;BME280_pressure;Samples;Min_cycle;Max_cycle;Signal;HPM_P1;HPM_P2
2023/09/25 00:02:03;;;;;;;1999.90;999.90;;;14.20;99.90;;;;;;5010734;28;20816;-67
2023/09/25 00:04:29;;;;;;;1999.90;999.90;;;14.10;99.90;;;;;;5023011;28;20176;-67
2023/09/25 00:06:54;;;;;;;1999.90;999.90;;;14.10;99.90;;;;;;5020346;28;20161;-67
2023/09/25 00:09:20;;;;;;;1999.90;999.90;;;14.20;99.90;;;;;;5012344;28;20167;-68
2023/09/25 00:11:45;;;;;;;1999.90;999.90;;;14.10;99.90;;;;;;5012273;28;20678;-66
2023/09/25 00:14:11;;;;;;;1999.90;999.90;;;14.10;99.90;;;;;;5012157;28;20691;-67
2023/09/25 00:16:38;;;;;;;1999.90;999.90;;;14.10;99.90;;;;;;5013321;28;20234;-67
2023/09/25 00:19:04;;;;;;;1999.90;999.90;;;14.10;99.90;;;;;;5023770;28;20441;-67
2023/09/25 00:21:30;;;;;;;1999.90;999.90;;;14.00;99.90;;;;;;5032234;28;20477;-67
2023/09/25 00:23:56;;;;;;;1999.90;999.90;;;14.10;99.90;;;;;;5023002;28;20515;-67
2023/09/25 00:26:21;;;;;;;1999.90;999.90;;;14.00;99.90;;;;;;5011939;28;20491;-67
2023/09/25 00:28:47;;;;;;;1999.90;999.90;;;14.00;99.90;;;;;;5012162;28;20181;-67
2023/09/25 00:31:12;;;;;;;1999.90;999.90;;;14.00;99.90;;;;;;5010956;28;20184;-67
2023/09/25 00:33:38;;;;;;;1999.90;999.90;;;14.00;99.90;;;;;;5018780;28;20824;-67
2023/09/25 00:36:05;;;;;;;1999.90;999.90;;;14.00;99.90;;;;;;5017704;28;20180;-67
2023/09/25 00:38:31;;;;;;;1999.90;999.90;;;14.00;99.90;;;;;;5012033;28;20166;-67
2023/09/25 00:40:57;;;;;;;1999.90;999.90;;;14.00;99.90;;;;;;5012157;28;20477;-67
2023/09/25 00:43:22;;;;;;;1999.90;999.90;;;13.90;99.90;;;;;;5011897;28;20443;-67
2023/09/25 00:45:48;;;;;;;1999.90;999.90;;;13.90;99.90;;;;;;5011988;28;20173;-67
2023/09/25 00:48:25;;;;;;;1999.90;999.90;;;13.90;99.90;;;;;;5019674;28;20178;-67
2023/09/25 00:50:51;;;;;;;1999.90;999.90;;;13.80;99.90;;;;;;5016166;28;20433;-67
2023/09/25 00:53:17;;;;;;;1999.90;999.90;;;13.80;99.90;;;;;;5023072;28;20458;-68
2023/09/25 00:55:43;;;;;;;1999.90;999.90;;;13.80;99.90;;;;;;5027270;28;20417;-68
2023/09/25 00:58:11;;;;;;;1999.90;999.90;;;13.70;99.90;;;;;;5029345;28;20240;-66
2023/09/25 01:00:36;;;;;;;1999.90;999.90;;;13.70;99.90;;;;;;5015850;28;20433;-66
2023/09/25 01:03:02;;;;;;;1999.90;999.90;;;13.70;99.90;;;;;;5019185;28;20479;-66
2023/09/25 01:05:28;;;;;;;1999.90;999.90;;;13.70;99.90;;;;;;5032588;28;20183;-66
2023/09/25 01:07:54;;;;;;;1999.90;999.90;;;13.60;99.90;;;;;;5035662;28;20446;-66
2023/09/25 01:10:19;;;;;;;1999.90;999.90;;;13.50;99.90;;;;;;5035378;28;20929;-67
2023/09/25 01:12:48;;;;;;;1999.90;999.90;;;13.50;99.90;;;;;;5030807;28;20287;-67
2023/09/25 01:15:14;;;;;;;1999.90;999.90;;;13.50;99.90;;;;;;5019973;28;20199;-66
2023/09/25 01:17:40;;;;;;;1999.90;999.90;;;13.50;99.90;;;;;;5019616;28;20539;-67
2023/09/25 01:20:11;;;;;;;1999.90;999.90;;;13.50;99.90;;;;;;5024112;28;20414;-67
2023/09/25 01:22:37;;;;;;;1999.90;999.90;;;13.40;99.90;;;;;;5021391;28;20454;-68
2023/09/25 01:25:03;;;;;;;1999.90;999.90;;;13.40;99.90;;;;;;5026796;28;20911;-68
2023/09/25 01:27:29;;;;;;;1999.90;999.90;;;13.40;99.90;;;;;;5035377;28;20410;-68
2023/09/25 01:29:54;;;;;;;1999.90;999.90;;;13.40;99.90;;;;;;5035219;28;20423;-68
2023/09/25 01:32:20;;;;;;;1999.90;999.90;;;13.40;99.90;;;;;;5025822;28;20227;-67
2023/09/25 01:34:45;;;;;;;1999.90;999.90;;;13.30;99.90;;;;;;5026515;28;20172;-67
2023/09/25 01:37:11;;;;;;;1999.90;999.90;;;13.30;99.90;;;;;;5035298;28;20175;-68
2023/09/25 01:39:37;;;;;;;1999.90;999.90;;;13.20;99.90;;;;;;5035272;28;20207;-67
2023/09/25 01:42:03;;;;;;;1999.90;999.90;;;13.10;99.90;;;;;;5034982;28;20168;-68
2023/09/25 01:44:29;;;;;;;1999.90;999.90;;;13.00;99.90;;;;;;5035039;28;20254;-68
2023/09/25 01:46:55;;;;;;;1999.90;999.90;;;13.00;99.90;;;;;;5033421;28;20513;-68
2023/09/25 01:49:20;;;;;;;1999.90;999.90;;;12.80;99.90;;;;;;5026604;28;20192;-68
2023/09/25 01:51:46;;;;;;;1999.90;999.90;;;12.70;99.90;;;;;;5034811;28;20399;-67
2023/09/25 01:54:12;;;;;;;1999.90;999.90;;;12.70;99.90;;;;;;5023655;28;20284;-67
2023/09/25 01:56:37;;;;;;;1999.90;999.90;;;12.80;99.90;;;;;;5032104;28;20679;-68
2023/09/25 01:59:03;;;;;;;1999.90;999.90;;;12.70;99.90;;;;;;5023564;28;20183;-68
2023/09/25 02:01:28;;;;;;;1999.90;999.90;;;12.70;99.90;;;;;;5030610;28;20202;-67
2023/09/25 02:03:54;;;;;;;1999.90;999.90;;;12.70;99.90;;;;;;5018344;28;20208;-68
2023/09/25 02:06:21;;;;;;;1999.90;999.90;;;12.60;99.90;;;;;;5030280;28;20593;-67
2023/09/25 02:08:46;;;;;;;1999.90;999.90;;;12.60;99.90;;;;;;5034373;28;20195;-68
2023/09/25 02:11:12;;;;;;;1999.90;999.90;;;12.50;99.90;;;;;;5027245;28;20417;-67
2023/09/25 02:13:38;;;;;;;1999.90;999.90;;;12.50;99.90;;;;;;5032466;28;20214;-68
2023/09/25 02:16:03;;;;;;;1999.90;999.90;;;12.40;99.90;;;;;;5034205;28;20521;-67
2023/09/25 02:18:29;;;;;;;1999.90;999.90;;;12.30;99.90;;;;;;5018946;28;20176;-67
2023/09/25 02:20:55;;;;;;;1999.90;999.90;;;12.40;99.90;;;;;;5022852;28;20194;-67
2023/09/25 02:23:20;;;;;;;1999.90;999.90;;;12.40;99.90;;;;;;5026855;28;20440;-67
2023/09/25 02:25:46;;;;;;;1999.90;999.90;;;12.40;99.90;;;;;;5025659;28;20178;-67
2023/09/25 02:28:12;;;;;;;1999.90;999.90;;;12.40;99.90;;;;;;5034189;28;20305;-68
2023/09/25 02:30:37;;;;;;;1999.90;999.90;;;12.40;99.90;;;;;;5034172;28;20217;-68
2023/09/25 02:33:04;;;;;;;1999.90;999.90;;;12.30;99.90;;;;;;5022376;28;20299;-67
2023/09/25 02:35:31;;;;;;;1999.90;999.90;;;12.30;99.90;;;;;;5025488;28;20174;-68
2023/09/25 02:37:57;;;;;;;1999.90;999.90;;;12.20;99.90;;;;;;5033882;28;20472;-68
2023/09/25 02:40:23;;;;;;;1999.90;999.90;;;12.20;99.90;;;;;;5033939;28;20958;-66
2023/09/25 02:42:48;;;;;;;1999.90;999.90;;;12.20;99.90;;;;;;5033777;28;20197;-67
2023/09/25 02:45:14;;;;;;;1999.90;999.90;;;12.30;99.90;;;;;;5033806;28;20169;-67
2023/09/25 02:47:39;;;;;;;1999.90;999.90;;;12.30;99.90;;;;;;5027234;28;20180;-67
2023/09/25 02:50:05;;;;;;;1999.90;999.90;;;12.30;99.90;;;;;;5025553;28;20231;-67
2023/09/25 02:52:31;;;;;;;1999.90;999.90;;;12.30;99.90;;;;;;5029022;28;20209;-68
2023/09/25 02:54:57;;;;;;;1999.90;999.90;;;12.30;99.90;;;;;;5025245;28;20409;-67
2023/09/25 02:57:22;;;;;;;1999.90;999.90;;;12.20;99.90;;;;;;5033246;28;20174;-67
2023/09/25 02:59:49;;;;;;;1999.90;999.90;;;12.10;99.90;;;;;;5023900;28;20180;-68
2023/09/25 03:02:14;;;;;;;1999.90;999.90;;;12.00;99.90;;;;;;5024465;28;20190;-68
2023/09/25 03:04:40;;;;;;;1999.90;999.90;;;11.80;99.90;;;;;;5023207;28;20943;-67
2023/09/25 03:07:05;;;;;;;1999.90;999.90;;;11.50;99.90;;;;;;5033246;28;20172;-67
2023/09/25 03:09:31;;;;;;;1999.90;999.90;;;11.40;99.90;;;;;;5033145;28;20214;-67
2023/09/25 03:11:56;;;;;;;1999.90;999.90;;;11.30;99.90;;;;;;5032788;28;20190;-68
2023/09/25 03:14:22;;;;;;;1999.90;999.90;;;11.30;99.90;;;;;;5021739;28;20253;-68
2023/09/25 03:16:48;;;;;;;1999.90;999.90;;;11.20;99.90;;;;;;5032196;28;20168;-68
2023/09/25 03:19:13;;;;;;;1999.90;999.90;;;11.40;99.90;;;;;;5018980;28;20553;-67
2023/09/25 03:21:42;;;;;;;1999.90;999.90;;;11.60;99.90;;;;;;5022610;28;20178;-68
2023/09/25 03:24:08;;;;;;;1999.90;999.90;;;11.70;99.90;;;;;;5023271;28;20194;-67
2023/09/25 03:26:34;;;;;;;1999.90;999.90;;;11.80;99.90;;;;;;5030075;28;20506;-67
2023/09/25 03:28:59;;;;;;;1999.90;999.90;;;11.90;99.90;;;;;;5033028;28;20536;-68
2023/09/25 03:31:25;;;;;;;1999.90;999.90;;;12.00;99.90;;;;;;5035440;28;20192;-69
2023/09/25 03:33:50;;;;;;;1999.90;999.90;;;12.10;99.90;;;;;;5026208;28;20199;-68
2023/09/25 03:36:16;;;;;;;1999.90;999.90;;;12.10;99.90;;;;;;5024585;28;20168;-69
2023/09/25 03:38:42;;;;;;;1999.90;999.90;;;12.10;99.90;;;;;;5034371;28;20165;-67
2023/09/25 03:41:08;;;;;;;1999.90;999.90;;;12.10;99.90;;;;;;5036671;28;20181;-69
2023/09/25 03:43:33;;;;;;;1999.90;999.90;;;12.10;99.90;;;;;;5030073;28;20206;-68
2023/09/25 03:45:59;;;;;;;1999.90;999.90;;;12.00;99.90;;;;;;5027343;28;20269;-69
2023/09/25 03:48:25;;;;;;;1999.90;999.90;;;12.00;99.90;;;;;;5031147;28;20188;-68
2023/09/25 03:50:50;;;;;;;1999.90;999.90;;;12.00;99.90;;;;;;5027379;28;20181;-68
2023/09/25 03:53:16;;;;;;;1999.90;999.90;;;11.90;99.90;;;;;;5031109;28;20260;-67
2023/09/25 03:55:42;;;;;;;1999.90;999.90;;;11.70;99.90;;;;;;5027052;28;20173;-68
2023/09/25 03:58:07;;;;;;;1999.90;999.90;;;11.60;99.90;;;;;;5028791;28;20291;-68
2023/09/25 04:00:33;;;;;;;1999.90;999.90;;;11.60;99.90;;;;;;5031573;28;20409;-69
2023/09/25 04:02:58;;;;;;;1999.90;999.90;;;11.50;99.90;;;;;;5032135;28;20575;-68
2023/09/25 04:05:24;;;;;;;1999.90;999.90;;;11.50;99.90;;;;;;5026030;28;20176;-67
2023/09/25 04:07:50;;;;;;;1999.90;999.90;;;11.50;99.90;;;;;;5028171;28;20179;-67
2023/09/25 04:10:16;;;;;;;1999.90;999.90;;;11.50;99.90;;;;;;5026480;28;20411;-68
2023/09/25 04:12:41;;;;;;;1999.90;999.90;;;11.50;99.90;;;;;;5034120;28;20209;-68
2023/09/25 04:15:13;;;;;;;1999.90;999.90;;;11.50;99.90;;;;;;5032948;28;20582;-68
2023/09/25 04:17:40;;;;;;;1999.90;999.90;;;11.50;99.90;;;;;;5030008;28;20173;-68
2023/09/25 04:20:17;;;;;;;1999.90;999.90;;;11.50;99.90;;;;;;5016913;28;20793;-68
2023/09/25 04:22:45;;;;;;;1999.90;999.90;;;11.60;99.90;;;;;;5024113;28;20857;-68
2023/09/25 04:25:20;;;;;;;1999.90;999.90;;;11.60;99.90;;;;;;5032359;28;20430;-67
2023/09/25 04:27:50;;;;;;;1999.90;999.90;;;11.50;99.90;;;;;;5032178;28;20762;-67
2023/09/25 04:30:20;;;;;;;1999.90;999.90;;;11.50;99.90;;;;;;5032274;28;20830;-68
2023/09/25 04:32:47;;;;;;;1999.90;999.90;;;11.60;99.90;;;;;;5026986;28;20456;-67
2023/09/25 04:35:15;;;;;;;1999.90;999.90;;;11.60;99.90;;;;;;5018956;28;20504;-68
2023/09/25 04:37:41;;;;;;;1999.90;999.90;;;11.50;99.90;;;;;;5021675;28;21001;-67
2023/09/25 04:40:22;;;;;;;1999.90;999.90;;;11.50;99.90;;;;;;5031962;28;20943;-68
2023/09/25 04:42:52;;;;;;;1999.90;999.90;;;11.40;99.90;;;;;;5028464;28;20907;-68
2023/09/25 04:45:19;;;;;;;1999.90;999.90;;;11.40;99.90;;;;;;5023702;28;20418;-68
2023/09/25 04:47:48;;;;;;;1999.90;999.90;;;11.50;99.90;;;;;;5032001;28;20407;-68
2023/09/25 04:50:15;;;;;;;1999.90;999.90;;;11.40;99.90;;;;;;5015771;28;20420;-68
2023/09/25 04:52:41;;;;;;;1999.90;999.90;;;11.40;99.90;;;;;;5024144;28;20464;-68
2023/09/25 04:55:10;;;;;;;1999.90;999.90;;;11.40;99.90;;;;;;5023268;28;20423;-67
2023/09/25 04:57:37;;;;;;;1999.90;999.90;;;11.50;99.90;;;;;;5032076;28;20414;-67
2023/09/25 05:00:13;;;;;;;1999.90;999.90;;;11.40;99.90;;;;;;5031811;28;20396;-68
2023/09/25 05:02:38;;;;;;;1999.90;999.90;;;11.50;99.90;;;;;;5032124;28;20423;-68
2023/09/25 05:05:04;;;;;;;1999.90;999.90;;;11.50;99.90;;;;;;5023887;28;20472;-68
2023/09/25 05:07:30;;;;;;;1999.90;999.90;;;11.50;99.90;;;;;;5027741;28;20174;-68
2023/09/25 05:09:55;;;;;;;1999.90;999.90;;;11.50;99.90;;;;;;5031604;28;20493;-67
2023/09/25 05:12:21;;;;;;;1999.90;999.90;;;11.60;99.90;;;;;;5030938;28;20207;-67
2023/09/25 05:14:46;;;;;;;1999.90;999.90;;;11.60;99.90;;;;;;5023184;28;20169;-68
2023/09/25 05:17:12;;;;;;;1999.90;999.90;;;11.60;99.90;;;;;;5031644;28;20595;-66
2023/09/25 05:19:37;;;;;;;1999.90;999.90;;;11.60;99.90;;;;;;5027470;28;20183;-67
2023/09/25 05:22:03;;;;;;;1999.90;999.90;;;11.60;99.90;;;;;;5022667;28;20169;-67
2023/09/25 05:24:28;;;;;;;1999.90;999.90;;;11.50;99.90;;;;;;5019617;28;20178;-67
2023/09/25 05:26:54;;;;;;;1999.90;999.90;;;11.60;99.90;;;;;;5030292;28;20235;-67
2023/09/25 05:29:20;;;;;;;1999.90;999.90;;;11.50;99.90;;;;;;5031376;28;20179;-67
2023/09/25 05:31:45;;;;;;;1999.90;999.90;;;11.50;99.90;;;;;;5032606;28;20208;-66
2023/09/25 05:34:11;;;;;;;1999.90;999.90;;;11.60;99.90;;;;;;5027563;28;20272;-67
2023/09/25 05:36:36;;;;;;;1999.90;999.90;;;11.40;99.90;;;;;;5019321;28;20182;-67
2023/09/25 05:39:02;;;;;;;1999.90;999.90;;;11.40;99.90;;;;;;5026507;28;20699;-67
2023/09/25 05:41:28;;;;;;;1999.90;999.90;;;11.40;99.90;;;;;;5019443;28;20180;-67
2023/09/25 05:43:56;;;;;;;1999.90;999.90;;;11.40;99.90;;;;;;5022943;28;20877;-66
2023/09/25 05:46:22;;;;;;;1999.90;999.90;;;11.50;99.90;;;;;;5029311;28;20298;-66
2023/09/25 05:48:47;;;;;;;1999.90;999.90;;;11.40;99.90;;;;;;5034722;28;20997;-66
2023/09/25 05:51:13;;;;;;;1999.90;999.90;;;11.40;99.90;;;;;;5027606;28;20186;-66
2023/09/25 05:53:38;;;;;;;1999.90;999.90;;;11.60;99.90;;;;;;5022052;28;20201;-66
2023/09/25 05:56:04;;;;;;;1999.90;999.90;;;11.60;99.90;;;;;;5022765;28;20572;-66
2023/09/25 05:58:32;;;;;;;1999.90;999.90;;;11.60;99.90;;;;;;5022031;28;20207;-67
2023/09/25 06:00:58;;;;;;;1999.90;999.90;;;11.60;99.90;;;;;;5015498;28;20201;-67
2023/09/25 06:03:25;;;;;;;1999.90;999.90;;;11.60;99.90;;;;;;5014560;28;20948;-66
2023/09/25 06:05:51;;;;;;;1999.90;999.90;;;11.70;99.90;;;;;;5014480;28;20546;-66
2023/09/25 06:08:16;;;;;;;1999.90;999.90;;;11.70;99.90;;;;;;5019231;28;20504;-67
2023/09/25 06:10:44;;;;;;;1999.90;999.90;;;11.70;99.90;;;;;;5031665;28;20668;-66
2023/09/25 06:13:09;;;;;;;1999.90;999.90;;;11.80;99.90;;;;;;5034016;28;20235;-66
2023/09/25 06:15:37;;;;;;;1999.90;999.90;;;11.90;99.90;;;;;;5034099;28;20454;-66
2023/09/25 06:18:07;;;;;;;1999.90;999.90;;;11.90;99.90;;;;;;5034167;28;20428;-67
2023/09/25 06:20:36;;;;;;;1999.90;999.90;;;12.00;99.90;;;;;;5034133;28;20399;-68
2023/09/25 06:23:02;;;;;;;1999.90;999.90;;;12.00;99.90;;;;;;5019144;28;20454;-66
2023/09/25 06:25:29;;;;;;;1999.90;999.90;;;12.10;99.90;;;;;;5025597;28;20415;-66
2023/09/25 06:27:55;;;;;;;1999.90;999.90;;;12.20;99.90;;;;;;5034050;28;20780;-67
2023/09/25 06:30:21;;;;;;;1999.90;999.90;;;12.20;99.90;;;;;;5033950;28;20408;-67
2023/09/25 06:32:48;;;;;;;1999.90;999.90;;;12.30;99.90;;;;;;5027838;28;20976;-67
2023/09/25 06:35:14;;;;;;;1999.90;999.90;;;12.40;99.90;;;;;;5025302;28;20756;-66
2023/09/25 06:37:39;;;;;;;1999.90;999.90;;;12.40;99.90;;;;;;5029462;28;20428;-67
2023/09/25 06:40:15;;;;;;;1999.90;999.90;;;12.40;99.90;;;;;;5014114;28;20418;-68
2023/09/25 06:42:41;;;;;;;1999.90;999.90;;;12.50;99.90;;;;;;5013954;28;20300;-67
2023/09/25 06:45:08;;;;;;;1999.90;999.90;;;12.60;99.90;;;;;;5024794;28;20437;-66
2023/09/25 06:47:36;;;;;;;1999.90;999.90;;;12.60;99.90;;;;;;5033626;28;20555;-67
2023/09/25 06:50:03;;;;;;;1999.90;999.90;;;12.70;99.90;;;;;;5033880;28;20406;-67
2023/09/25 06:52:29;;;;;;;1999.90;999.90;;;12.70;99.90;;;;;;5024919;28;21035;-66
2023/09/25 06:54:55;;;;;;;1999.90;999.90;;;12.80;99.90;;;;;;5003445;28;20619;-66
2023/09/25 06:57:21;;;;;;;1999.90;999.90;;;12.90;99.90;;;;;;5033456;28;20170;-66
2023/09/25 06:59:46;;;;;;;1999.90;999.90;;;13.00;99.90;;;;;;5033391;28;20900;-67
2023/09/25 07:02:12;;;;;;;1999.90;999.90;;;13.40;99.90;;;;;;5033181;28;20177;-67
2023/09/25 07:04:37;;;;;;;1999.90;999.90;;;13.10;99.90;;;;;;5033040;28;20630;-67
2023/09/25 07:07:05;;;;;;;1999.90;999.90;;;13.20;99.90;;;;;;5018980;28;20177;-68
2023/09/25 07:09:31;;;;;;;1999.90;999.90;;;13.30;99.90;;;;;;5023953;28;20309;-67
2023/09/25 07:11:56;;;;;;;1999.90;999.90;;;13.00;99.90;;;;;;5014378;28;20448;-67
2023/09/25 07:14:22;;;;;;;1999.90;999.90;;;13.30;99.90;;;;;;5021373;28;20290;-67
2023/09/25 07:16:48;;;;;;;1999.90;999.90;;;13.30;99.90;;;;;;5030395;28;20178;-68
2023/09/25 07:19:14;;;;;;;1999.90;999.90;;;13.30;99.90;;;;;;5033036;28;20175;-67
2023/09/25 07:21:40;;;;;;;1999.90;999.90;;;13.40;99.90;;;;;;5031741;28;20925;-68
2023/09/25 07:24:07;;;;;;;1999.90;999.90;;;13.40;99.90;;;;;;5017334;28;20197;-67
2023/09/25 07:26:32;;;;;;;1999.90;999.90;;;13.50;99.90;;;;;;5022977;28;20417;-67
2023/09/25 07:28:58;;;;;;;1999.90;999.90;;;13.50;99.90;;;;;;5023998;28;20424;-68
2023/09/25 07:31:23;;;;;;;1999.90;999.90;;;13.50;99.90;;;;;;5033342;28;20214;-68
2023/09/25 07:33:50;;;;;;;1999.90;999.90;;;13.60;99.90;;;;;;5026108;28;20210;-68
2023/09/25 07:36:20;;;;;;;1999.90;999.90;;;13.70;99.90;;;;;;5026276;28;20190;-68
2023/09/25 07:38:49;;;;;;;1999.90;999.90;;;13.70;99.90;;;;;;5020408;28;20456;-68
2023/09/25 07:41:15;;;;;;;1999.90;999.90;;;13.80;99.90;;;;;;5026144;28;20781;-68
2023/09/25 07:43:41;;;;;;;1999.90;999.90;;;13.80;99.90;;;;;;5022627;28;20459;-67
2023/09/25 07:46:08;;;;;;;1999.90;999.90;;;14.00;99.90;;;;;;5013305;28;20470;-68
2023/09/25 07:48:37;;;;;;;1999.90;999.90;;;14.10;99.90;;;;;;5027212;28;20429;-68
2023/09/25 07:51:04;;;;;;;1999.90;999.90;;;14.10;99.90;;;;;;5024881;28;20471;-68
2023/09/25 07:53:30;;;;;;;1999.90;999.90;;;14.20;99.90;;;;;;5024348;28;20505;-68
2023/09/25 07:55:57;;;;;;;1999.90;999.90;;;14.40;99.90;;;;;;5023568;28;20422;-67
2023/09/25 07:58:22;;;;;;;1999.90;999.90;;;14.50;99.90;;;;;;5025881;28;20411;-67
2023/09/25 08:00:48;;;;;;;1999.90;999.90;;;14.60;99.90;;;;;;5030476;28;20508;-68
2023/09/25 08:03:17;;;;;;;1999.90;999.90;;;14.70;99.90;;;;;;5029763;28;20224;-68
2023/09/25 08:05:43;;;;;;;1999.90;999.90;;;14.80;99.90;;;;;;5023046;28;20560;-67
2023/09/25 08:08:12;;;;;;;1999.90;999.90;;;15.00;99.90;;;;;;5014457;28;20803;-68
2023/09/25 08:10:41;;;;;;;1999.90;999.90;;;15.10;99.90;;;;;;5023091;28;20429;-67
2023/09/25 08:13:08;;;;;;;1999.90;999.90;;;15.20;99.90;;;;;;5016266;28;20471;-68
2023/09/25 08:15:35;;;;;;;1999.90;999.90;;;15.30;99.90;;;;;;5023906;28;20992;-67
2023/09/25 08:18:01;;;;;;;1999.90;999.90;;;15.30;99.90;;;;;;5025622;28;20787;-67
2023/09/25 08:20:27;;;;;;;1999.90;999.90;;;15.50;99.90;;;;;;5023801;28;20409;-67
2023/09/25 08:22:53;;;;;;;1999.90;999.90;;;15.50;99.90;;;;;;5032018;28;20197;-67
2023/09/25 08:25:20;;;;;;;1999.90;999.90;;;15.70;99.90;;;;;;5031739;28;20469;-67
2023/09/25 08:27:45;;;;;;;1999.90;999.90;;;15.90;99.90;;;;;;5029757;28;20426;-67
2023/09/25 08:30:13;;;;;;;1999.90;999.90;;;16.00;99.90;;;;;;5024197;28;20912;-67
2023/09/25 08:32:39;;;;;;;1999.90;999.90;;;16.10;99.90;;;;;;5032096;28;20211;-67
2023/09/25 08:35:05;;;;;;;1999.90;999.90;;;16.20;99.90;;;;;;5032344;28;20410;-68
2023/09/25 08:37:30;;;;;;;1999.90;999.90;;;16.40;99.90;;;;;;5032295;28;20412;-68
2023/09/25 08:39:56;;;;;;;1999.90;999.90;;;16.50;99.90;;;;;;5022425;28;20433;-69
2023/09/25 08:42:24;;;;;;;1999.90;999.90;;;16.60;99.90;;;;;;5023618;28;20671;-68
2023/09/25 08:44:51;;;;;;;1999.90;999.90;;;16.70;99.90;;;;;;5026744;28;20649;-67
2023/09/25 08:47:21;;;;;;;1999.90;999.90;;;16.80;99.90;;;;;;5022947;28;20415;-68
2023/09/25 08:49:51;;;;;;;1999.90;999.90;;;17.00;99.90;;;;;;5031761;28;20933;-67
2023/09/25 08:52:18;;;;;;;1999.90;999.90;;;17.00;99.90;;;;;;5023046;28;20437;-66
2023/09/25 08:54:46;;;;;;;1999.90;999.90;;;17.00;99.90;;;;;;5014174;28;20499;-66
2023/09/25 08:57:12;;;;;;;1999.90;999.90;;;17.10;99.90;;;;;;5018114;28;20428;-66
2023/09/25 08:59:39;;;;;;;1999.90;999.90;;;17.20;99.90;;;;;;5027128;28;21002;-66
2023/09/25 09:02:05;;;;;;;1999.90;999.90;;;17.30;99.90;;;;;;5026098;28;20807;-66
2023/09/25 09:04:31;;;;;;;1999.90;999.90;;;17.50;99.90;;;;;;5026350;28;20484;-67
2023/09/25 09:06:57;;;;;;;1999.90;999.90;;;17.60;99.90;;;;;;5029113;28;20425;-67
2023/09/25 09:09:23;;;;;;;1999.90;999.90;;;17.70;99.90;;;;;;5019483;28;20431;-67
2023/09/25 09:11:50;;;;;;;1999.90;999.90;;;17.70;99.90;;;;;;5019473;28;20254;-67
2023/09/25 09:14:35;;;;;;;1999.90;999.90;;;17.80;99.90;;;;;;5023762;28;20201;-67
2023/09/25 09:17:04;;;;;;;1999.90;999.90;;;17.90;99.90;;;;;;5031181;28;20509;-68
2023/09/25 09:19:52;;;;;;;1999.90;999.90;;;18.00;99.90;;;;;;5032329;28;20450;-68
2023/09/25 09:22:19;;;;;;;1999.90;999.90;;;18.10;99.90;;;;;;5035116;28;20878;-68
2023/09/25 09:24:45;;;;;;;1999.90;999.90;;;18.20;99.90;;;;;;5034460;28;20894;-67
2023/09/25 09:27:11;;;;;;;1999.90;999.90;;;18.30;99.90;;;;;;5034949;28;20410;-68
2023/09/25 09:29:38;;;;;;;1999.90;999.90;;;18.40;99.90;;;;;;5035059;28;20550;-67
2023/09/25 09:32:05;;;;;;;1999.90;999.90;;;18.50;99.90;;;;;;5035231;28;20784;-67
2023/09/25 09:34:32;;;;;;;1999.90;999.90;;;18.60;99.90;;;;;;5034909;28;20550;-67
2023/09/25 09:36:58;;;;;;;1999.90;999.90;;;18.70;99.90;;;;;;5019088;28;20428;-67
2023/09/25 09:39:26;;;;;;;1999.90;999.90;;;18.90;99.90;;;;;;5028270;28;20403;-67
2023/09/25 09:41:54;;;;;;;1999.90;999.90;;;18.90;99.90;;;;;;5034655;28;20477;-67
2023/09/25 09:44:20;;;;;;;1999.90;999.90;;;19.00;99.90;;;;;;5035244;28;20425;-67
2023/09/25 09:46:46;;;;;;;1999.90;999.90;;;19.10;99.90;;;;;;5034540;28;20415;-67
2023/09/25 09:49:15;;;;;;;1999.90;999.90;;;19.20;99.90;;;;;;5034938;28;20205;-67
2023/09/25 09:51:44;;;;;;;1999.90;999.90;;;19.40;99.90;;;;;;5034821;28;20407;-67
2023/09/25 09:54:12;;;;;;;1999.90;999.90;;;19.50;99.90;;;;;;5034595;28;20571;-67
2023/09/25 09:56:39;;;;;;;1999.90;999.90;;;19.60;99.60;;;;;;5034328;28;21178;-67
2023/09/25 09:59:08;;;;;;;1999.90;999.90;;;19.70;97.10;;;;;;5035038;28;20469;-67
2023/09/25 10:01:34;;;;;;;1999.90;999.90;;;19.80;96.10;;;;;;5034390;28;20414;-67
2023/09/25 10:04:05;;;;;;;1999.90;999.90;;;19.80;96.60;;;;;;5034549;28;20524;-68
2023/09/25 10:06:31;;;;;;;1999.90;999.90;;;19.80;96.60;;;;;;5034150;28;20415;-67
2023/09/25 10:09:11;;;;;;;1999.90;999.90;;;19.80;95.70;;;;;;5034364;28;20411;-67
2023/09/25 10:11:36;;;;;;;1999.90;999.90;;;20.10;97.60;;;;;;5034124;28;20423;-67
2023/09/25 10:14:03;;;;;;;1999.90;999.90;;;20.20;94.90;;;;;;5034092;28;20462;-67
2023/09/25 10:16:30;;;;;;;1999.90;999.90;;;20.30;94.30;;;;;;5034229;28;20251;-67
2023/09/25 10:18:56;;;;;;;1999.90;999.90;;;20.40;95.10;;;;;;5033122;28;20450;-67
2023/09/25 10:21:22;;;;;;;1999.90;999.90;;;20.50;93.50;;;;;;5034114;28;20412;-67
2023/09/25 10:23:50;;;;;;;1999.90;999.90;;;20.60;92.80;;;;;;5034062;28;20406;-67
2023/09/25 10:26:21;;;;;;;1999.90;999.90;;;20.70;92.00;;;;;;5034012;28;20637;-67
2023/09/25 10:29:18;;;;;;;1999.90;999.90;;;20.80;93.60;;;;;;5033996;28;20401;-66
2023/09/25 10:31:47;;;;;;;1999.90;999.90;;;21.00;88.30;;;;;;5033971;28;20473;-66
2023/09/25 10:34:12;;;;;;;1999.90;999.90;;;21.20;90.10;;;;;;5033699;28;20511;-66
2023/09/25 10:36:41;;;;;;;1999.90;999.90;;;21.40;85.90;;;;;;5033570;28;20448;-67
2023/09/25 10:39:08;;;;;;;1999.90;999.90;;;21.50;82.50;;;;;;5033990;28;20271;-66
2023/09/25 10:41:34;;;;;;;1999.90;999.90;;;21.60;77.50;;;;;;5033600;28;20496;-67
2023/09/25 10:44:00;;;;;;;1999.90;999.90;;;21.70;72.00;;;;;;5033608;28;20498;-68
2023/09/25 10:46:25;;;;;;;1999.90;999.90;;;21.80;73.70;;;;;;5033492;28;20192;-67
2023/09/25 10:48:53;;;;;;;1999.90;999.90;;;22.00;73.90;;;;;;5032381;28;20387;-66
2023/09/25 10:51:20;;;;;;;1999.90;999.90;;;22.10;70.10;;;;;;5033552;28;20185;-66
2023/09/25 10:53:46;;;;;;;1999.90;999.90;;;22.20;73.60;;;;;;5033503;28;20437;-67
2023/09/25 10:56:11;;;;;;;1999.90;999.90;;;22.30;65.80;;;;;;5033211;28;20770;-67
2023/09/25 10:58:38;;;;;;;1999.90;999.90;;;22.30;64.90;;;;;;5033461;28;20182;-66
2023/09/25 11:01:04;;;;;;;1999.90;999.90;;;22.40;60.80;;;;;;5033556;28;20175;-66
2023/09/25 11:03:35;;;;;;;1999.90;999.90;;;22.40;59.20;;;;;;5033663;28;20545;-66
2023/09/25 11:06:01;;;;;;;1999.90;999.90;;;22.60;61.10;;;;;;5033585;28;20811;-66
2023/09/25 11:08:27;;;;;;;1999.90;999.90;;;22.70;57.30;;;;;;5033255;28;20378;-67
2023/09/25 11:10:53;;;;;;;1999.90;999.90;;;22.80;57.20;;;;;;5033178;28;20190;-66
2023/09/25 11:13:20;;;;;;;1999.90;999.90;;;22.90;56.60;;;;;;5032954;28;20466;-67
2023/09/25 11:15:46;;;;;;;1999.90;999.90;;;23.10;55.20;;;;;;5032832;28;20696;-67
2023/09/25 11:18:12;;;;;;;1999.90;999.90;;;23.20;55.50;;;;;;5033014;28;20410;-67
2023/09/25 11:20:38;;;;;;;1999.90;999.90;;;23.30;53.60;;;;;;5032985;28;20414;-66
2023/09/25 11:23:09;;;;;;;1999.90;999.90;;;23.40;49.20;;;;;;5032839;28;20205;-67
2023/09/25 11:25:46;;;;;;;1999.90;999.90;;;23.40;45.10;;;;;;5032565;28;20386;-67
2023/09/25 11:28:22;;;;;;;1999.90;999.90;;;23.50;43.90;;;;;;5033008;28;20759;-66
2023/09/25 11:30:49;;;;;;;1999.90;999.90;;;23.80;40.60;;;;;;5032638;28;20647;-66
2023/09/25 11:33:22;;;;;;;1999.90;999.90;;;24.10;40.00;;;;;;5032885;28;20478;-68
2023/09/25 11:35:52;;;;;;;1999.90;999.90;;;24.60;37.90;;;;;;5032453;28;20390;-69
2023/09/25 11:38:23;;;;;;;1999.90;999.90;;;25.10;34.10;;;;;;5032623;28;20390;-66
2023/09/25 11:40:53;;;;;;;1999.90;999.90;;;25.70;29.00;;;;;;5032589;28;20390;-66
2023/09/25 11:43:18;;;;;;;1999.90;999.90;;;26.50;26.90;;;;;;5032490;28;20501;-67
2023/09/25 11:45:45;;;;;;;1999.90;999.90;;;27.30;22.10;;;;;;5032235;28;20419;-69
2023/09/25 11:48:14;;;;;;;1999.90;999.90;;;28.10;18.00;;;;;;5032750;28;20177;-67
2023/09/25 11:50:40;;;;;;;1999.90;999.90;;;29.00;10.90;;;;;;5032659;28;20402;-66
2023/09/25 11:53:06;;;;;;;1999.90;999.90;;;29.80;7.70;;;;;;5032361;28;20458;-67
2023/09/25 11:55:32;;;;;;;1999.90;999.90;;;30.40;4.90;;;;;;5032094;28;20407;-66
2023/09/25 11:57:58;;;;;;;1999.90;999.90;;;30.80;1.00;;;;;;5032386;28;20180;-66